createdAt,value
2023-04-19T00:00:54.036Z,98165.41
2023-04-19T00:03:24.785Z,98164.56
2023-04-19T00:05:54.116Z,98163.56
2023-04-19T00:08:21.613Z,98159.19
2023-04-19T00:10:49.154Z,98167.22
2023-04-19T00:13:16.685Z,98167.22
2023-04-19T00:15:44.256Z,98164.56
2023-04-19T00:18:11.749Z,98162.91
2023-04-19T00:20:39.834Z,98163.72
2023-04-19T00:23:07.373Z,98162.06
2023-04-19T00:25:34.942Z,98162.25
2023-04-19T00:28:02.437Z,98155.19
2023-04-19T00:30:29.990Z,98158.53
2023-04-19T00:32:59.110Z,98161.22
2023-04-19T00:35:26.744Z,98151.84
2023-04-19T00:37:54.310Z,98150.38
2023-04-19T00:40:21.878Z,98151.34
2023-04-19T00:42:49.362Z,98153.72
2023-04-19T00:45:16.961Z,98147.53
2023-04-19T00:47:44.558Z,98154.19
2023-04-19T00:50:13.403Z,98146.38
2023-04-19T00:52:41.972Z,98149.03
2023-04-19T00:55:10.127Z,98145.03
2023-04-19T00:57:38.164Z,98147.88
2023-04-19T01:00:08.785Z,98142.03
2023-04-19T01:02:36.492Z,98144.88
2023-04-19T01:05:04.650Z,98137.19
2023-04-19T01:07:35.059Z,98138.19
2023-04-19T01:10:03.405Z,98137.19
2023-04-19T01:12:30.883Z,98131.34
2023-04-19T01:14:58.395Z,98123.81
2023-04-19T01:17:27.107Z,98127.13
2023-04-19T01:20:08.570Z,98128.16
2023-04-19T01:22:37.863Z,98129.00
2023-04-19T01:25:07.180Z,98125.31
2023-04-19T01:27:35.643Z,98118.94
2023-04-19T01:30:03.256Z,98122.97
2023-04-19T01:32:30.806Z,98124.31
2023-04-19T01:34:58.429Z,98123.50
2023-04-19T01:37:26.039Z,98100.94
2023-04-19T01:39:53.755Z,98116.13
2023-04-19T01:42:21.321Z,98110.75
2023-04-19T01:44:48.800Z,98102.94
2023-04-19T01:47:16.296Z,98104.94
2023-04-19T01:49:43.810Z,98105.28
2023-04-19T01:52:11.403Z,98101.78
2023-04-19T01:54:39.000Z,98102.59
2023-04-19T01:57:06.495Z,98097.56
2023-04-19T01:59:34.030Z,98102.09
2023-04-19T02:02:01.635Z,98096.44
2023-04-19T02:04:29.292Z,98098.41
2023-04-19T02:06:56.792Z,98091.41
2023-04-19T02:09:24.344Z,98088.56
2023-04-19T02:11:51.892Z,98089.56
2023-04-19T02:14:19.363Z,98091.25
2023-04-19T02:16:46.915Z,98085.22
2023-04-19T02:19:14.489Z,98077.03
2023-04-19T02:21:42.085Z,98084.03
2023-04-19T02:24:09.655Z,98074.50
2023-04-19T02:26:37.373Z,98072.66
2023-04-19T02:29:07.087Z,98069.16
2023-04-19T02:31:35.978Z,98069.66
2023-04-19T02:34:03.501Z,98069.50
2023-04-19T02:36:31.010Z,98068.47
2023-04-19T02:38:59.292Z,98064.16
2023-04-19T02:41:26.865Z,98066.16
2023-04-19T02:43:54.383Z,98072.34
2023-04-19T02:46:21.988Z,98063.50
2023-04-19T02:48:49.540Z,98061.81
2023-04-19T02:51:17.668Z,98055.94
2023-04-19T02:53:45.361Z,98061.28
2023-04-19T02:56:12.981Z,98061.47
2023-04-19T02:58:40.604Z,98060.97
2023-04-19T03:01:08.505Z,98065.16
2023-04-19T03:03:36.556Z,98059.97
2023-04-19T03:06:04.389Z,98068.81
2023-04-19T03:08:32.959Z,98061.81
2023-04-19T03:11:00.579Z,98055.81
2023-04-19T03:13:28.060Z,98062.13
2023-04-19T03:15:55.752Z,98055.81
2023-04-19T03:18:23.764Z,98055.81
2023-04-19T03:20:53.314Z,98059.63
2023-04-19T03:23:21.194Z,98064.31
2023-04-19T03:25:51.107Z,98059.78
2023-04-19T03:28:29.088Z,98057.47
2023-04-19T03:31:16.425Z,98053.75
2023-04-19T03:33:45.197Z,98053.09
2023-04-19T03:36:14.172Z,98048.25
2023-04-19T03:38:44.494Z,98054.44
2023-04-19T03:41:27.453Z,98042.41
2023-04-19T03:44:21.001Z,98040.75
2023-04-19T03:46:49.042Z,98044.56
2023-04-19T03:49:20.884Z,98040.09
2023-04-19T03:51:53.577Z,98049.09
2023-04-19T03:54:21.121Z,98043.25
2023-04-19T03:56:48.667Z,98038.41
2023-04-19T03:59:16.343Z,98036.91
2023-04-19T04:01:44.169Z,98035.22
2023-04-19T04:04:12.616Z,98037.38
2023-04-19T04:06:40.744Z,98033.88
2023-04-19T04:09:08.381Z,98035.38
2023-04-19T04:11:35.955Z,98036.91
2023-04-19T04:14:04.394Z,98033.22
2023-04-19T04:16:35.277Z,98037.38
2023-04-19T04:19:02.815Z,98035.22
2023-04-19T04:21:33.298Z,98037.75
2023-04-19T04:24:04.191Z,98035.38
2023-04-19T04:26:40.877Z,98033.88
2023-04-19T04:29:16.631Z,98044.22
2023-04-19T04:31:45.452Z,98040.38
2023-04-19T04:34:14.795Z,98048.06
2023-04-19T04:36:50.572Z,98041.19
2023-04-19T04:39:19.797Z,98042.50
2023-04-19T04:41:50.006Z,98044.50
2023-04-19T04:44:17.736Z,98041.00
2023-04-19T04:46:46.956Z,98041.00
2023-04-19T04:49:19.625Z,98047.16
2023-04-19T04:51:47.938Z,98042.50
2023-04-19T04:54:15.981Z,98042.50
2023-04-19T04:56:44.751Z,98045.81
2023-04-19T04:59:13.211Z,98047.81
2023-04-19T05:01:44.547Z,98055.47
2023-04-19T05:04:12.923Z,98055.00
2023-04-19T05:06:41.172Z,98051.31
2023-04-19T05:09:11.388Z,98055.34
2023-04-19T05:11:38.964Z,98060.00
2023-04-19T05:14:06.548Z,98059.84
2023-04-19T05:16:34.888Z,98059.03
2023-04-19T05:19:03.634Z,98053.56
2023-04-19T05:21:35.718Z,98058.22
2023-04-19T05:24:05.906Z,98056.91
2023-04-19T05:26:35.549Z,98051.09
2023-04-19T05:29:04.424Z,98054.28
2023-04-19T05:31:54.382Z,98063.13
2023-04-19T05:34:26.331Z,98060.28
2023-04-19T05:36:55.844Z,98070.78
2023-04-19T05:39:23.380Z,98071.44
2023-04-19T05:41:52.536Z,98067.44
2023-04-19T05:44:20.055Z,98069.63
2023-04-19T05:46:47.593Z,98064.28
2023-04-19T05:49:20.855Z,98074.63
2023-04-19T05:52:17.492Z,98066.97
2023-04-19T05:54:51.334Z,98074.31
2023-04-19T05:57:18.777Z,98075.34
2023-04-19T05:59:46.501Z,98073.34
2023-04-19T06:02:17.829Z,98074.00
2023-04-19T06:04:45.919Z,98070.66
2023-04-19T06:07:27.292Z,98085.34
2023-04-19T06:09:59.099Z,98070.81
2023-04-19T06:12:27.336Z,98072.16
2023-04-19T06:14:54.848Z,98065.47
2023-04-19T06:17:24.973Z,98069.47
2023-04-19T06:19:53.751Z,98066.81
2023-04-19T06:22:21.481Z,98063.00
2023-04-19T06:24:49.132Z,98063.47
2023-04-19T06:27:17.386Z,98063.97
2023-04-19T06:29:44.992Z,98060.47
2023-04-19T06:32:12.558Z,98063.66
2023-04-19T06:34:40.127Z,98069.16
2023-04-19T06:37:07.680Z,98066.31
2023-04-19T06:39:35.406Z,98074.78
2023-04-19T06:42:03.666Z,98072.81
2023-04-19T06:44:31.290Z,98073.34
2023-04-19T06:46:58.768Z,98076.00
2023-04-19T06:49:26.423Z,98068.34
2023-04-19T06:51:54.242Z,98072.00
2023-04-19T06:54:22.125Z,98077.53
2023-04-19T06:56:50.381Z,98075.50
2023-04-19T06:59:20.558Z,98074.50
2023-04-19T07:01:48.836Z,98069.16
2023-04-19T07:04:17.879Z,98068.66
2023-04-19T07:06:49.784Z,98069.81
2023-04-19T07:09:18.678Z,98059.78
2023-04-19T07:11:48.576Z,98066.31
2023-04-19T07:14:16.595Z,98062.31
2023-04-19T07:16:44.319Z,98060.97
2023-04-19T07:19:12.690Z,98059.47
2023-04-19T07:21:40.421Z,98058.63
2023-04-19T07:24:08.020Z,98055.75
2023-04-19T07:26:35.554Z,98057.75
2023-04-19T07:29:03.037Z,98055.91
2023-04-19T07:31:30.595Z,98046.88
2023-04-19T07:33:58.068Z,98054.22
2023-04-19T07:36:25.579Z,98048.03
2023-04-19T07:38:53.101Z,98046.63
2023-04-19T07:41:20.663Z,98047.47
2023-04-19T07:43:48.143Z,98046.28
2023-04-19T07:46:16.295Z,98045.81
2023-04-19T07:48:44.034Z,98040.63
2023-04-19T07:51:13.370Z,98035.13
2023-04-19T07:53:42.179Z,98035.13
2023-04-19T07:56:12.876Z,98034.13
2023-04-19T07:58:41.283Z,98032.09
2023-04-19T08:01:09.041Z,98030.91
2023-04-19T08:03:37.828Z,98029.75
2023-04-19T08:06:09.606Z,98026.88
2023-04-19T08:08:37.381Z,98026.38
2023-04-19T08:11:06.185Z,98025.69
2023-04-19T08:13:33.848Z,98023.78
2023-04-19T08:18:33.955Z,98024.50
2023-04-19T08:21:01.628Z,98029.13
2023-04-19T08:23:34.898Z,98027.22
2023-04-19T08:26:09.001Z,98017.28
2023-04-19T08:28:36.512Z,98028.78
2023-04-19T08:31:07.648Z,98020.31
2023-04-19T08:33:35.200Z,98033.38
2023-04-19T08:36:02.742Z,98025.94
2023-04-19T08:38:30.309Z,98017.72
2023-04-19T08:40:57.963Z,98027.59
2023-04-19T08:43:33.211Z,98026.06
2023-04-19T08:46:02.281Z,98021.53
2023-04-19T08:48:30.172Z,98014.06
2023-04-19T08:51:04.889Z,98019.56
2023-04-19T08:53:36.879Z,98016.22
2023-04-19T08:56:18.035Z,98016.34
2023-04-19T09:04:00.364Z,98011.31
2023-04-19T09:06:39.649Z,98006.78
2023-04-19T09:12:01.553Z,98009.13
2023-04-19T09:14:29.815Z,98007.94
2023-04-19T09:17:17.190Z,98002.28
2023-04-19T09:19:49.948Z,97999.47
2023-04-19T09:22:18.769Z,97995.47
2023-04-19T09:25:22.814Z,97997.97
2023-04-19T09:27:36.441Z,97993.63
2023-04-19T09:30:06.194Z,97992.72
2023-04-19T09:32:48.801Z,97985.66
2023-04-19T09:35:16.891Z,97981.69
2023-04-19T09:38:05.410Z,97985.41
2023-04-19T09:40:34.577Z,97973.28
2023-04-19T09:43:23.036Z,97971.88
2023-04-19T09:45:51.624Z,97973.81
2023-04-19T09:48:19.131Z,97970.13
2023-04-19T09:51:00.878Z,97963.06
2023-04-19T09:53:34.876Z,97959.44
2023-04-19T09:56:04.172Z,97963.13
2023-04-19T09:58:46.335Z,97958.75
2023-04-19T10:01:20.146Z,97952.00
2023-04-19T10:03:50.958Z,97952.75
2023-04-19T10:08:53.463Z,97954.16
2023-04-19T10:11:31.404Z,97946.91
2023-04-19T10:14:01.616Z,97950.81
2023-04-19T10:16:30.779Z,97943.72
2023-04-19T10:18:59.040Z,97947.56
2023-04-19T10:21:28.766Z,97939.50
2023-04-19T10:23:57.253Z,97937.25
2023-04-19T10:26:24.835Z,97938.06
2023-04-19T10:28:58.631Z,97935.97
2023-04-19T10:31:26.700Z,97942.88
2023-04-19T10:33:54.899Z,97939.94
2023-04-19T10:36:22.519Z,97935.34
2023-04-19T10:38:55.514Z,97930.16
2023-04-19T10:41:23.260Z,97930.59
2023-04-19T10:43:57.560Z,97934.63
2023-04-19T10:46:26.019Z,97930.00
2023-04-19T10:48:57.300Z,97933.38
2023-04-19T10:51:29.661Z,97919.47
2023-04-19T10:54:01.982Z,97918.28
2023-04-19T10:56:35.850Z,97918.09
2023-04-19T10:59:03.298Z,97908.28
2023-04-19T11:01:46.173Z,97904.22
2023-04-19T11:04:17.451Z,97911.63
2023-04-19T11:06:51.383Z,97908.28
2023-04-19T11:09:34.243Z,97902.22
2023-04-19T11:12:08.500Z,97900.94
2023-04-19T11:14:45.700Z,97892.88
2023-04-19T11:17:26.889Z,97891.22
2023-04-19T11:19:58.397Z,97897.13
2023-04-19T11:22:33.919Z,97896.66
2023-04-19T11:25:19.542Z,97888.03
2023-04-19T11:27:49.850Z,97886.84
2023-04-19T11:30:22.165Z,97894.44
2023-04-19T11:32:54.787Z,97888.69
2023-04-19T11:35:26.943Z,97898.59
2023-04-19T11:37:56.660Z,97887.06
2023-04-19T11:40:28.072Z,97891.28
2023-04-19T11:43:00.848Z,97888.50
2023-04-19T11:45:38.207Z,97881.75
2023-04-19T11:48:14.916Z,97884.94
2023-04-19T11:50:44.670Z,97875.09
2023-04-19T11:53:22.224Z,97873.88
2023-04-19T11:55:53.109Z,97874.06
2023-04-19T11:58:29.783Z,97872.41
2023-04-19T12:01:12.461Z,97864.72
2023-04-19T12:03:48.299Z,97870.06
2023-04-19T12:06:25.701Z,97864.81
2023-04-19T12:08:55.508Z,97868.31
2023-04-19T12:11:46.519Z,97868.13
2023-04-19T12:14:19.750Z,97872.66
2023-04-19T12:17:16.669Z,97867.78
2023-04-19T12:19:47.368Z,97867.47
2023-04-19T12:22:20.684Z,97872.72
2023-04-19T12:24:51.902Z,97875.59
2023-04-19T12:27:19.742Z,97872.50
2023-04-19T12:29:47.250Z,97873.75
2023-04-19T12:32:16.013Z,97866.25
2023-04-19T12:34:44.085Z,97869.50
2023-04-19T12:37:11.565Z,97871.56
2023-04-19T12:39:39.356Z,97870.72
2023-04-19T12:42:06.897Z,97870.06
2023-04-19T12:44:34.421Z,97859.75
2023-04-19T12:47:02.109Z,97852.38
2023-04-19T12:49:29.698Z,97856.03
2023-04-19T12:51:57.483Z,97858.69
2023-04-19T12:54:25.364Z,97850.66
2023-04-19T12:56:53.390Z,97849.09
2023-04-19T12:59:22.033Z,97847.38
2023-04-19T13:01:49.785Z,97845.34
2023-04-19T13:04:17.623Z,97845.84
2023-04-19T13:06:45.829Z,97846.66
2023-04-19T13:09:15.077Z,97849.34
2023-04-19T13:11:42.785Z,97843.16
2023-04-19T13:14:10.488Z,97840.31
2023-04-19T13:16:37.981Z,97837.94
2023-04-19T13:19:05.708Z,97837.22
2023-04-19T13:21:33.169Z,97827.81
2023-04-19T13:24:00.739Z,97826.09
2023-04-19T13:26:28.520Z,97820.81
2023-04-19T13:28:56.478Z,97815.38
2023-04-19T13:31:26.554Z,97813.34
2023-04-19T13:33:54.780Z,97813.47
2023-04-19T13:36:22.307Z,97815.28
2023-04-19T13:38:49.893Z,97813.72
2023-04-19T13:41:17.485Z,97800.31
2023-04-19T13:43:45.517Z,97794.56
2023-04-19T13:46:13.306Z,97795.34
2023-04-19T13:48:40.827Z,97795.25
2023-04-19T13:51:08.354Z,97787.09
2023-04-19T13:53:35.902Z,97786.91
2023-04-19T13:56:03.835Z,97786.91
2023-04-19T13:58:31.762Z,97782.84
2023-04-19T14:00:59.300Z,97778.59
2023-04-19T14:03:27.161Z,97776.66
2023-04-19T14:05:54.849Z,97772.31
2023-04-19T14:08:22.567Z,97770.91
2023-04-19T14:10:50.847Z,97780.28
2023-04-19T14:13:18.483Z,97773.06
2023-04-19T14:15:46.592Z,97776.19
2023-04-19T14:18:14.150Z,97770.63
2023-04-19T14:20:41.683Z,97771.47
2023-04-19T14:23:09.240Z,97767.56
2023-04-19T14:25:36.790Z,97753.00
2023-04-19T14:28:04.549Z,97751.03
2023-04-19T14:30:32.226Z,97740.31
2023-04-19T14:32:59.760Z,97739.13
2023-04-19T14:35:27.749Z,97735.06
2023-04-19T14:37:55.349Z,97730.63
2023-04-19T14:40:23.579Z,97733.38
2023-04-19T14:42:51.053Z,97726.59
2023-04-19T14:45:18.795Z,97727.88
2023-04-19T14:47:46.480Z,97723.44
2023-04-19T14:50:13.981Z,97718.13
2023-04-19T14:52:41.546Z,97721.34
2023-04-19T14:55:10.017Z,97722.63
2023-04-19T14:57:37.515Z,97715.66
2023-04-19T15:00:05.914Z,97716.94
2023-04-19T15:02:33.575Z,97718.59
2023-04-19T15:05:01.290Z,97714.91
2023-04-19T15:07:28.942Z,97714.63
2023-04-19T15:09:56.746Z,97714.84
2023-04-19T15:12:24.236Z,97719.34
2023-04-19T15:14:51.707Z,97713.16
2023-04-19T15:17:19.528Z,97712.34
2023-04-19T15:19:47.097Z,97717.38
2023-04-19T15:22:14.663Z,97701.59
2023-04-19T15:24:42.145Z,97704.97
2023-04-19T15:27:09.627Z,97700.69
2023-04-19T15:29:39.334Z,97703.84
2023-04-19T15:32:07.002Z,97695.38
2023-04-19T15:34:34.549Z,97696.47
2023-04-19T15:37:02.629Z,97696.34
2023-04-19T15:39:30.142Z,97693.75
2023-04-19T15:41:58.529Z,97690.44
2023-04-19T15:44:26.020Z,97689.97
2023-04-19T15:46:53.605Z,97694.31
2023-04-19T15:49:21.344Z,97690.16
2023-04-19T15:51:48.909Z,97684.56
2023-04-19T15:54:16.533Z,97692.16
2023-04-19T15:56:44.046Z,97685.06
2023-04-19T15:59:11.585Z,97689.09
2023-04-19T16:01:39.200Z,97684.81
2023-04-19T16:04:07.075Z,97685.72
2023-04-19T16:06:35.041Z,97683.69
2023-04-19T16:09:02.528Z,97686.56
2023-04-19T16:11:30.137Z,97683.25
2023-04-19T16:13:57.654Z,97682.81
2023-04-19T16:16:28.057Z,97688.16
2023-04-19T16:18:55.898Z,97691.63
2023-04-19T16:21:23.403Z,97690.56
2023-04-19T16:23:50.920Z,97691.00
2023-04-19T16:26:18.393Z,97680.59
2023-04-19T16:28:46.438Z,97694.41
2023-04-19T16:31:13.995Z,97680.75
2023-04-19T16:33:41.512Z,97678.81
2023-04-19T16:36:08.997Z,97682.94
2023-04-19T16:38:36.576Z,97675.22
2023-04-19T16:41:05.805Z,97677.84
2023-04-19T16:43:33.408Z,97667.09
2023-04-19T16:46:00.985Z,97672.19
2023-04-19T16:48:28.578Z,97677.53
2023-04-19T16:50:56.095Z,97675.84
2023-04-19T16:53:23.606Z,97670.41
2023-04-19T16:55:51.127Z,97669.97
2023-04-19T16:58:18.822Z,97665.13
2023-04-19T17:00:46.444Z,97672.47
2023-04-19T17:03:14.366Z,97666.00
2023-04-19T17:05:41.949Z,97664.72
2023-04-19T17:08:11.058Z,97664.59
2023-04-19T17:10:38.643Z,97669.84
2023-04-19T17:13:06.170Z,97669.03
2023-04-19T17:15:33.801Z,97664.88
2023-04-19T17:18:01.921Z,97670.88
2023-04-19T17:20:29.419Z,97676.25
2023-04-19T17:22:56.913Z,97671.25
2023-04-19T17:25:24.398Z,97661.69
2023-04-19T17:27:51.974Z,97665.09
2023-04-19T17:30:19.541Z,97663.38
2023-04-19T17:32:47.091Z,97669.69
2023-04-19T17:35:15.761Z,97670.25
2023-04-19T17:37:43.603Z,97669.34
2023-04-19T17:40:11.981Z,97673.06
2023-04-19T17:42:39.467Z,97665.94
2023-04-19T17:45:10.942Z,97671.59
2023-04-19T17:47:39.753Z,97672.34
2023-04-19T17:50:13.048Z,97681.50
2023-04-19T17:52:40.629Z,97683.69
2023-04-19T17:55:08.777Z,97674.06
2023-04-19T17:57:36.404Z,97670.84
2023-04-19T18:00:06.880Z,97675.56
2023-04-19T18:02:36.828Z,97677.41
2023-04-19T18:05:04.962Z,97686.84
2023-04-19T18:07:32.484Z,97681.09
2023-04-19T18:10:00.213Z,97692.44
2023-04-19T18:12:27.882Z,97692.53
2023-04-19T18:14:57.558Z,97688.94
2023-04-19T18:17:25.455Z,97699.81
2023-04-19T18:19:53.037Z,97691.59
2023-04-19T18:22:20.582Z,97693.81
2023-04-19T18:24:51.139Z,97698.25
2023-04-19T18:27:18.653Z,97701.94
2023-04-19T18:29:52.320Z,97709.22
2023-04-19T18:32:21.700Z,97715.09
2023-04-19T18:34:52.427Z,97707.50
2023-04-19T18:37:19.947Z,97700.91
2023-04-19T18:39:47.552Z,97705.50
2023-04-19T18:42:16.335Z,97712.75
2023-04-19T18:44:53.557Z,97715.50
2023-04-19T18:47:22.690Z,97716.22
2023-04-19T18:50:03.480Z,97717.09
2023-04-19T18:52:35.463Z,97721.91
2023-04-19T18:55:07.762Z,97721.78
2023-04-19T18:57:35.917Z,97724.16
2023-04-19T19:00:06.323Z,97722.00
2023-04-19T19:02:36.005Z,97726.69
2023-04-19T19:05:07.514Z,97731.38
2023-04-19T19:07:37.501Z,97731.25
2023-04-19T19:10:17.332Z,97732.13
2023-04-19T19:12:48.971Z,97730.44
2023-04-19T19:15:16.871Z,97735.13
2023-04-19T19:17:49.305Z,97730.31
2023-04-19T19:20:19.500Z,97732.00
2023-04-19T19:22:47.166Z,97730.38
2023-04-19T19:25:14.851Z,97737.72
2023-04-19T19:27:58.173Z,97739.94
2023-04-19T19:30:33.483Z,97739.44
2023-04-19T19:33:02.348Z,97748.59
2023-04-19T19:35:30.002Z,97747.94
2023-04-19T19:37:57.504Z,97744.78
2023-04-19T19:40:25.057Z,97747.31
2023-04-19T19:42:52.572Z,97748.66
2023-04-19T19:45:20.582Z,97749.19
2023-04-19T19:47:50.060Z,97747.00
2023-04-19T19:52:48.596Z,97744.19
2023-04-19T19:55:16.154Z,97748.19
2023-04-19T20:00:36.445Z,97744.34
2023-04-19T20:03:02.403Z,97743.38
2023-04-19T20:05:32.879Z,97750.38
2023-04-19T20:08:13.058Z,97750.34
2023-04-19T20:10:42.845Z,97747.50
2023-04-19T20:13:12.817Z,97751.84
2023-04-19T20:15:40.993Z,97749.16
2023-04-19T20:18:08.600Z,97750.81
2023-04-19T20:20:37.334Z,97746.63
2023-04-19T20:23:05.732Z,97738.47
2023-04-19T20:25:33.341Z,97740.78
2023-04-19T20:28:01.877Z,97736.78
2023-04-19T20:30:29.370Z,97744.13
2023-04-19T20:32:57.119Z,97744.63
2023-04-19T20:35:24.663Z,97737.75
2023-04-19T20:37:52.135Z,97732.41
2023-04-19T20:40:19.955Z,97744.41
2023-04-19T20:42:47.491Z,97739.56
2023-04-19T20:45:15.061Z,97744.53
2023-04-19T20:47:43.059Z,97735.22
2023-04-19T20:50:11.113Z,97738.19
2023-04-19T20:52:38.781Z,97731.50
2023-04-19T20:55:07.783Z,97733.66
2023-04-19T20:57:35.406Z,97732.16
2023-04-19T21:00:04.461Z,97739.63
2023-04-19T21:02:32.167Z,97738.44
2023-04-19T21:04:59.825Z,97729.09
2023-04-19T21:07:27.362Z,97733.91
2023-04-19T21:09:54.876Z,97740.41
2023-04-19T21:12:22.358Z,97734.72
2023-04-19T21:14:52.210Z,97733.38
2023-04-19T21:17:20.452Z,97720.69
2023-04-19T21:19:48.025Z,97724.53
2023-04-19T21:22:15.507Z,97719.19
2023-04-19T21:24:43.202Z,97716.53
2023-04-19T21:27:10.672Z,97717.50
2023-04-19T21:29:38.187Z,97710.34
2023-04-19T21:32:05.813Z,97716.53
2023-04-19T21:34:34.153Z,97716.84
2023-04-19T21:37:01.664Z,97718.69
2023-04-19T21:39:29.172Z,97721.50
2023-04-19T21:41:57.386Z,97721.78
2023-04-19T21:44:24.877Z,97713.47
2023-04-19T21:46:52.459Z,97711.97
2023-04-19T21:49:20.064Z,97714.06
2023-04-19T21:51:47.581Z,97723.38
2023-04-19T21:54:26.685Z,97713.31
2023-04-19T21:56:58.870Z,97711.00
2023-04-19T21:59:26.404Z,97706.13
2023-04-19T22:01:54.096Z,97708.75
2023-04-19T22:04:22.022Z,97706.56
2023-04-19T22:06:49.528Z,97710.53
2023-04-19T22:09:17.307Z,97704.69
2023-04-19T22:11:46.001Z,97705.31
2023-04-19T22:14:13.580Z,97701.44
2023-04-19T22:16:42.088Z,97697.88
2023-04-19T22:19:10.690Z,97692.50
2023-04-19T22:21:38.160Z,97690.31
2023-04-19T22:24:06.216Z,97690.41
2023-04-19T22:26:34.313Z,97691.53
2023-04-19T22:29:01.848Z,97688.66
2023-04-19T22:31:29.352Z,97679.59
2023-04-19T22:33:57.074Z,97678.53
2023-04-19T22:36:25.598Z,97674.84
2023-04-19T22:38:53.101Z,97678.25
2023-04-19T22:41:20.655Z,97672.41
2023-04-19T22:43:48.152Z,97670.91
2023-04-19T22:46:16.053Z,97671.88
2023-04-19T22:48:43.674Z,97667.53
2023-04-19T22:51:11.145Z,97667.53
2023-04-19T22:53:38.641Z,97667.03
2023-04-19T22:56:06.352Z,97660.34
2023-04-19T22:58:33.829Z,97659.94
2023-04-19T23:01:02.551Z,97660.38
2023-04-19T23:03:30.185Z,97658.72
2023-04-19T23:05:58.233Z,97650.69
2023-04-19T23:08:26.158Z,97645.81
2023-04-19T23:10:53.726Z,97646.13
2023-04-19T23:13:21.336Z,97646.41
2023-04-19T23:15:48.943Z,97649.19
2023-04-19T23:18:17.486Z,97647.69
2023-04-19T23:20:45.019Z,97641.97
2023-04-19T23:23:12.559Z,97639.31
2023-04-19T23:25:40.236Z,97637.66
2023-04-19T23:28:08.087Z,97636.59
2023-04-19T23:30:36.326Z,97631.00
2023-04-19T23:33:03.949Z,97627.50
2023-04-19T23:35:31.478Z,97624.84
2023-04-19T23:37:59.559Z,97620.69
2023-04-19T23:40:27.046Z,97616.38
2023-04-19T23:42:54.550Z,97614.84
2023-04-19T23:45:22.404Z,97613.31
2023-04-19T23:47:50.412Z,97608.16
2023-04-19T23:50:17.952Z,97607.19
2023-04-19T23:52:45.455Z,97595.34
2023-04-19T23:55:13.198Z,97602.09
2023-04-19T23:57:41.029Z,97598.75
